createdAt,value
2018-03-15T00:02:01.350Z,5.41
2018-03-15T00:04:35.362Z,5.43
2018-03-15T00:07:04.437Z,5.43
2018-03-15T00:09:32.774Z,5.36
2018-03-15T00:12:01.107Z,5.32
2018-03-15T00:14:29.490Z,5.28
2018-03-15T00:16:57.795Z,5.29
2018-03-15T00:19:26.890Z,5.28
2018-03-15T00:21:55.989Z,5.26
2018-03-15T00:24:25.056Z,5.23
2018-03-15T00:26:53.439Z,5.24
2018-03-15T00:29:21.748Z,5.20
2018-03-15T00:31:50.845Z,5.20
2018-03-15T00:34:19.926Z,5.17
2018-03-15T00:36:48.229Z,5.15
2018-03-15T00:39:17.318Z,5.14
2018-03-15T00:41:46.416Z,5.12
2018-03-15T00:44:15.508Z,5.15
2018-03-15T00:46:44.583Z,5.22
2018-03-15T00:49:12.892Z,5.18
2018-03-15T00:51:41.990Z,5.14
2018-03-15T00:54:11.065Z,5.08
2018-03-15T00:56:39.452Z,5.08
2018-03-15T00:59:07.831Z,5.06
2018-03-15T01:01:36.130Z,5.08
2018-03-15T01:04:05.214Z,5.05
2018-03-15T01:06:33.532Z,5.06
2018-03-15T01:09:01.831Z,5.05
2018-03-15T01:11:30.132Z,4.99
2018-03-15T01:13:58.464Z,4.96
2018-03-15T01:16:26.782Z,4.95
2018-03-15T01:18:55.126Z,4.98
2018-03-15T01:21:23.450Z,4.96
2018-03-15T01:23:51.756Z,4.93
2018-03-15T01:26:20.090Z,4.96
2018-03-15T01:28:48.413Z,4.95
2018-03-15T01:31:16.698Z,4.92
2018-03-15T01:33:45.002Z,4.94
2018-03-15T01:36:14.108Z,4.95
2018-03-15T01:38:43.390Z,4.90
2018-03-15T01:41:12.022Z,4.87
2018-03-15T01:43:40.483Z,4.84
2018-03-15T01:46:09.070Z,4.87
2018-03-15T01:48:37.452Z,4.88
2018-03-15T01:51:05.774Z,4.86
2018-03-15T01:53:34.307Z,4.82
2018-03-15T01:56:02.832Z,4.82
2018-03-15T01:58:31.148Z,4.78
2018-03-15T02:00:59.493Z,4.78
2018-03-15T02:03:27.774Z,4.75
2018-03-15T02:05:56.096Z,4.66
2018-03-15T02:08:24.422Z,4.61
2018-03-15T02:10:52.746Z,4.54
2018-03-15T02:13:21.907Z,4.53
2018-03-15T02:15:50.260Z,4.51
2018-03-15T02:18:19.451Z,4.46
2018-03-15T02:20:47.764Z,4.43
2018-03-15T02:23:16.068Z,4.42
2018-03-15T02:25:44.426Z,4.43
2018-03-15T02:28:12.738Z,4.38
2018-03-15T02:30:41.873Z,4.38
2018-03-15T02:33:10.963Z,4.40
2018-03-15T02:35:40.065Z,4.49
2018-03-15T02:38:09.146Z,4.46
2018-03-15T02:40:37.538Z,4.48
2018-03-15T02:43:05.846Z,4.50
2018-03-15T02:45:34.911Z,4.51
2018-03-15T02:48:04.748Z,4.55
2018-03-15T02:50:33.848Z,4.55
2018-03-15T02:53:02.942Z,4.61
2018-03-15T02:55:32.016Z,4.65
2018-03-15T02:58:00.321Z,4.70
2018-03-15T03:00:29.402Z,4.75
2018-03-15T03:02:57.722Z,4.77
2018-03-15T03:05:26.041Z,4.81
2018-03-15T03:07:54.362Z,4.83
2018-03-15T03:10:23.454Z,4.83
2018-03-15T03:12:52.544Z,4.87
2018-03-15T03:15:20.846Z,4.90
2018-03-15T03:17:49.920Z,4.89
2018-03-15T03:20:18.221Z,4.90
2018-03-15T03:22:47.304Z,4.94
2018-03-15T03:25:15.614Z,4.95
2018-03-15T03:27:43.930Z,4.92
2018-03-15T03:30:12.335Z,4.89
2018-03-15T03:32:40.642Z,4.89
2018-03-15T03:35:09.724Z,4.88
2018-03-15T03:37:38.806Z,4.93
2018-03-15T03:40:07.136Z,4.94
2018-03-15T03:42:35.464Z,4.86
2018-03-15T03:45:03.768Z,4.83
2018-03-15T03:47:32.842Z,4.84
2018-03-15T03:50:01.154Z,4.89
2018-03-15T03:52:30.254Z,4.96
2018-03-15T03:54:59.430Z,4.94
2018-03-15T03:57:27.728Z,4.94
2018-03-15T03:59:56.050Z,4.98
2018-03-15T04:02:24.354Z,4.96
2018-03-15T04:04:52.666Z,4.94
2018-03-15T04:07:20.976Z,4.95
2018-03-15T04:09:49.296Z,4.99
2018-03-15T04:12:17.603Z,4.97
2018-03-15T04:14:45.921Z,4.96
2018-03-15T04:17:14.240Z,4.98
2018-03-15T04:19:42.552Z,4.97
2018-03-15T04:22:11.616Z,4.97
2018-03-15T04:24:39.944Z,4.97
2018-03-15T04:27:09.003Z,4.97
2018-03-15T04:29:37.402Z,5.00
2018-03-15T04:32:06.476Z,5.04
2018-03-15T04:34:34.796Z,5.02
2018-03-15T04:37:03.858Z,5.01
2018-03-15T04:39:32.172Z,4.99
2018-03-15T04:42:01.244Z,4.96
2018-03-15T04:44:29.552Z,4.95
2018-03-15T04:46:58.620Z,4.91
2018-03-15T04:49:26.916Z,4.86
2018-03-15T04:51:55.230Z,4.84
2018-03-15T04:54:23.555Z,4.87
2018-03-15T04:56:51.908Z,4.88
2018-03-15T04:59:20.953Z,4.88
2018-03-15T05:01:49.295Z,4.89
2018-03-15T05:04:17.972Z,4.89
2018-03-15T05:06:46.559Z,4.94
2018-03-15T05:09:14.864Z,4.92
2018-03-15T05:11:43.158Z,4.95
2018-03-15T05:14:11.471Z,4.94
2018-03-15T05:16:40.534Z,4.95
2018-03-15T05:19:08.856Z,4.93
2018-03-15T05:21:37.929Z,4.97
2018-03-15T05:24:06.255Z,4.98
2018-03-15T05:26:34.557Z,4.96
2018-03-15T05:29:02.874Z,4.97
2018-03-15T05:31:31.950Z,4.95
2018-03-15T05:34:00.248Z,4.93
2018-03-15T05:36:28.559Z,4.95
2018-03-15T05:38:56.888Z,4.95
2018-03-15T05:41:25.204Z,4.93
2018-03-15T05:43:54.297Z,4.95
2018-03-15T05:46:23.363Z,4.95
2018-03-15T05:48:51.682Z,4.98
2018-03-15T05:51:20.737Z,5.01
2018-03-15T05:53:49.065Z,5.02
2018-03-15T05:56:18.136Z,5.05
2018-03-15T05:58:46.453Z,5.09
2018-03-15T06:01:14.993Z,5.14
2018-03-15T06:03:43.300Z,5.14
2018-03-15T06:06:12.377Z,5.19
2018-03-15T06:08:40.689Z,5.24
2018-03-15T06:11:09.764Z,5.33
2018-03-15T06:13:38.062Z,5.43
2018-03-15T06:16:07.119Z,5.54
2018-03-15T06:18:35.422Z,5.61
2018-03-15T06:21:03.723Z,5.69
2018-03-15T06:23:32.799Z,5.80
2018-03-15T06:26:01.115Z,5.97
2018-03-15T06:28:29.450Z,6.07
2018-03-15T06:30:57.785Z,6.16
2018-03-15T06:33:26.143Z,6.23
2018-03-15T06:35:54.449Z,6.30
2018-03-15T06:38:22.745Z,6.41
2018-03-15T06:40:51.158Z,6.46
2018-03-15T06:43:19.715Z,6.56
2018-03-15T06:45:48.092Z,6.68
2018-03-15T06:48:16.461Z,6.81
2018-03-15T06:50:44.805Z,6.91
2018-03-15T06:53:14.003Z,7.07
2018-03-15T06:55:43.081Z,7.22
2018-03-15T06:58:11.447Z,7.36
2018-03-15T07:00:40.008Z,7.55
2018-03-15T07:03:08.301Z,7.74
2018-03-15T07:05:36.616Z,7.93
2018-03-15T07:08:05.010Z,8.11
2018-03-15T07:10:34.168Z,8.26
2018-03-15T07:13:03.215Z,8.37
2018-03-15T07:15:32.290Z,8.41
2018-03-15T07:18:00.593Z,8.51
2018-03-15T07:20:29.755Z,8.54
2018-03-15T07:22:58.067Z,8.63
2018-03-15T07:25:27.864Z,8.68
2018-03-15T07:27:56.168Z,8.78
2018-03-15T07:30:24.499Z,8.88
2018-03-15T07:32:52.803Z,9.00
2018-03-15T07:35:21.119Z,9.07
2018-03-15T07:37:50.188Z,9.13
2018-03-15T07:40:18.497Z,9.26
2018-03-15T07:42:47.559Z,9.33
2018-03-15T07:45:15.878Z,9.44
2018-03-15T07:47:44.959Z,9.66
2018-03-15T07:50:13.288Z,9.89
2018-03-15T07:52:41.606Z,10.00
2018-03-15T07:55:09.927Z,10.17
2018-03-15T07:57:38.727Z,10.31
2018-03-15T08:00:10.691Z,10.52
2018-03-15T08:02:39.336Z,10.66
2018-03-15T08:05:07.773Z,10.85
2018-03-15T08:07:36.067Z,11.06
2018-03-15T08:10:04.361Z,11.29
2018-03-15T08:12:32.719Z,11.44
2018-03-15T08:15:01.300Z,11.57
2018-03-15T08:17:30.455Z,11.59
2018-03-15T08:19:58.759Z,11.70
2018-03-15T08:22:27.839Z,11.85
2018-03-15T08:24:56.931Z,12.00
2018-03-15T08:27:25.321Z,12.13
2018-03-15T08:29:53.630Z,12.22
2018-03-15T08:32:22.113Z,12.28
2018-03-15T08:34:50.449Z,12.32
2018-03-15T08:37:18.799Z,12.37
2018-03-15T08:39:47.095Z,12.39
2018-03-15T08:42:15.405Z,12.38
2018-03-15T08:44:43.725Z,12.37
2018-03-15T08:47:12.157Z,12.38
2018-03-15T08:49:40.462Z,12.41
2018-03-15T08:52:09.541Z,12.48
2018-03-15T08:54:37.853Z,12.49
2018-03-15T08:57:06.201Z,12.47
2018-03-15T08:59:34.525Z,12.51
2018-03-15T09:02:02.841Z,12.57
2018-03-15T09:04:31.177Z,12.57
2018-03-15T09:07:00.440Z,12.59
2018-03-15T09:09:28.592Z,12.67
2018-03-15T09:11:56.944Z,12.78
2018-03-15T09:14:25.281Z,12.92
2018-03-15T09:16:53.658Z,13.06
2018-03-15T09:19:21.963Z,13.14
2018-03-15T09:21:50.903Z,13.21
2018-03-15T09:24:19.203Z,13.35
2018-03-15T09:26:47.519Z,13.48
2018-03-15T09:29:15.831Z,13.63
2018-03-15T09:31:44.137Z,13.74
2018-03-15T09:34:12.473Z,13.83
2018-03-15T09:36:40.809Z,13.96
2018-03-15T09:39:09.125Z,14.02
2018-03-15T09:41:38.234Z,14.11
2018-03-15T09:44:06.561Z,14.17
2018-03-15T09:46:34.903Z,14.23
2018-03-15T09:49:03.233Z,14.32
2018-03-15T09:51:31.553Z,14.39
2018-03-15T09:54:00.814Z,14.47
2018-03-15T09:56:29.230Z,14.62
2018-03-15T09:58:58.323Z,14.75
2018-03-15T10:01:27.450Z,14.85
2018-03-15T10:03:55.826Z,14.97
2018-03-15T10:06:24.153Z,15.11
2018-03-15T10:08:52.488Z,15.24
2018-03-15T10:11:21.565Z,15.39
2018-03-15T10:13:50.647Z,15.54
2018-03-15T10:16:19.088Z,15.71
2018-03-15T10:18:47.406Z,15.86
2018-03-15T10:21:15.728Z,16.00
2018-03-15T10:23:44.847Z,16.13
2018-03-15T10:26:13.173Z,16.22
2018-03-15T10:28:41.501Z,16.42
2018-03-15T10:31:09.949Z,16.68
2018-03-15T10:33:39.039Z,16.91
2018-03-15T10:36:08.129Z,17.02
2018-03-15T10:38:36.446Z,17.15
2018-03-15T10:41:04.793Z,17.20
2018-03-15T10:43:33.931Z,17.32
2018-03-15T10:46:02.281Z,17.51
2018-03-15T10:48:30.621Z,17.58
2018-03-15T10:50:58.933Z,17.61
2018-03-15T10:53:27.343Z,17.65
2018-03-15T10:55:56.440Z,17.55
2018-03-15T10:58:25.567Z,17.56
2018-03-15T11:00:59.516Z,17.73
2018-03-15T11:06:37.524Z,18.16
2018-03-15T11:09:05.906Z,18.50
2018-03-15T11:11:34.229Z,18.57
2018-03-15T11:14:03.305Z,18.63
2018-03-15T11:16:31.639Z,18.87
2018-03-15T11:18:59.959Z,19.15
2018-03-15T11:21:28.270Z,19.46
2018-03-15T11:23:57.525Z,19.79
2018-03-15T11:26:25.803Z,19.95
2018-03-15T11:28:54.134Z,20.19
2018-03-15T11:31:23.225Z,20.48
2018-03-15T11:33:52.346Z,20.73
2018-03-15T11:36:20.655Z,20.87
2018-03-15T11:38:48.973Z,20.98
2018-03-15T11:41:18.066Z,21.16
2018-03-15T11:43:46.469Z,21.30
2018-03-15T11:46:14.751Z,21.42
2018-03-15T11:48:43.857Z,21.49
2018-03-15T11:51:12.214Z,21.63
2018-03-15T11:53:40.503Z,21.83
2018-03-15T11:56:09.617Z,21.94
2018-03-15T11:58:38.694Z,22.07
2018-03-15T12:01:07.807Z,22.13
2018-03-15T12:03:36.944Z,22.43
2018-03-15T12:06:05.283Z,22.85
2018-03-15T12:08:34.528Z,22.93
2018-03-15T12:11:03.341Z,22.97
2018-03-15T12:13:31.649Z,22.85
2018-03-15T12:16:00.016Z,22.68
2018-03-15T12:18:28.331Z,22.65
2018-03-15T12:20:57.436Z,22.55
2018-03-15T12:23:26.526Z,22.41
2018-03-15T12:25:54.849Z,22.22
2018-03-15T12:28:23.174Z,22.15
2018-03-15T12:30:52.315Z,22.11
2018-03-15T12:33:21.843Z,21.98
2018-03-15T12:35:50.176Z,21.85
2018-03-15T12:38:18.504Z,21.77
2018-03-15T12:40:47.619Z,21.74
2018-03-15T12:43:16.383Z,21.65
2018-03-15T12:45:44.716Z,21.61
2018-03-15T12:48:13.036Z,21.55
2018-03-15T12:50:41.347Z,21.42
2018-03-15T12:53:09.665Z,21.12
2018-03-15T12:55:38.195Z,20.81
2018-03-15T12:58:06.502Z,20.44
2018-03-15T13:00:34.819Z,19.91
2018-03-15T13:03:03.124Z,19.54
2018-03-15T13:05:31.463Z,19.15
2018-03-15T13:07:59.771Z,18.82
2018-03-15T13:10:28.838Z,18.61
2018-03-15T13:12:57.155Z,18.50
2018-03-15T13:15:26.240Z,18.35
2018-03-15T13:17:55.314Z,18.30
2018-03-15T13:22:58.402Z,18.21
2018-03-15T13:25:26.714Z,18.16
2018-03-15T13:27:55.057Z,18.11
2018-03-15T13:30:23.460Z,18.17
2018-03-15T13:32:51.754Z,18.23
2018-03-15T13:35:20.092Z,18.32
2018-03-15T13:37:48.421Z,18.39
2018-03-15T13:40:16.742Z,18.45
2018-03-15T13:42:45.043Z,18.56
2018-03-15T13:45:13.357Z,18.64
2018-03-15T13:47:41.686Z,18.70
2018-03-15T13:50:09.994Z,18.66
2018-03-15T13:52:38.316Z,18.46
2018-03-15T13:55:06.637Z,18.28
2018-03-15T13:57:35.128Z,18.11
2018-03-15T14:00:04.198Z,18.00
2018-03-15T14:02:35.630Z,17.93
2018-03-15T14:05:04.072Z,17.83
2018-03-15T14:07:32.380Z,17.70
2018-03-15T14:10:00.747Z,17.59
2018-03-15T14:12:29.084Z,17.45
2018-03-15T14:14:57.401Z,17.30
2018-03-15T14:17:25.794Z,17.29
2018-03-15T14:19:54.138Z,17.31
2018-03-15T14:22:22.457Z,17.39
2018-03-15T14:24:50.767Z,17.51
2018-03-15T14:27:19.081Z,17.65
2018-03-15T14:29:50.268Z,17.83
2018-03-15T14:32:18.936Z,17.98
2018-03-15T14:34:47.290Z,18.07
2018-03-15T14:37:15.598Z,18.09
2018-03-15T14:39:43.916Z,18.09
2018-03-15T14:42:12.237Z,18.08
2018-03-15T14:44:40.552Z,18.11
2018-03-15T14:47:08.858Z,18.12
2018-03-15T14:49:37.189Z,18.11
2018-03-15T14:52:05.516Z,18.05
2018-03-15T14:54:33.850Z,17.98
2018-03-15T14:57:02.161Z,17.82
2018-03-15T14:59:30.507Z,17.61
2018-03-15T15:01:58.843Z,17.43
2018-03-15T15:04:27.149Z,17.21
2018-03-15T15:06:56.254Z,17.05
2018-03-15T15:09:25.350Z,16.87
2018-03-15T15:11:54.458Z,16.69
2018-03-15T15:14:23.541Z,16.48
2018-03-15T15:16:52.658Z,16.24
2018-03-15T15:19:20.982Z,15.97
2018-03-15T15:21:49.304Z,15.76
2018-03-15T15:24:18.412Z,15.55
2018-03-15T15:26:47.496Z,15.35
2018-03-15T15:29:16.760Z,15.16
2018-03-15T15:31:45.086Z,15.00
2018-03-15T15:34:14.219Z,14.91
2018-03-15T15:36:42.542Z,14.84
2018-03-15T15:39:10.960Z,14.75
2018-03-15T15:41:40.056Z,14.70
2018-03-15T15:44:09.202Z,14.61
2018-03-15T15:46:37.506Z,14.56
2018-03-15T15:49:05.980Z,14.51
2018-03-15T15:51:34.288Z,14.48
2018-03-15T15:54:03.364Z,14.41
2018-03-15T15:56:31.798Z,14.35
2018-03-15T15:59:00.106Z,14.26
2018-03-15T16:01:28.448Z,14.17
2018-03-15T16:03:56.997Z,14.07
2018-03-15T16:06:25.297Z,13.97
2018-03-15T16:08:53.600Z,13.88
2018-03-15T16:11:22.686Z,13.79
2018-03-15T16:13:51.762Z,13.71
2018-03-15T16:16:20.096Z,13.66
2018-03-15T16:18:48.476Z,13.61
2018-03-15T16:21:16.797Z,13.57
2018-03-15T16:23:45.179Z,13.58
2018-03-15T16:26:13.509Z,13.58
2018-03-15T16:28:41.834Z,13.63
2018-03-15T16:31:10.193Z,13.67
2018-03-15T16:33:38.556Z,13.68
2018-03-15T16:36:06.875Z,13.67
2018-03-15T16:38:35.441Z,13.65
2018-03-15T16:41:03.794Z,13.64
2018-03-15T16:43:32.891Z,13.59
2018-03-15T16:46:02.267Z,13.52
2018-03-15T16:48:30.703Z,13.42
2018-03-15T16:50:59.089Z,13.34
2018-03-15T16:53:27.441Z,13.27
2018-03-15T16:55:56.527Z,13.21
2018-03-15T16:58:25.688Z,13.14
2018-03-15T17:00:54.009Z,13.03
2018-03-15T17:03:22.352Z,12.93
2018-03-15T17:05:50.672Z,12.84
2018-03-15T17:08:19.762Z,12.75
2018-03-15T17:10:48.065Z,12.67
2018-03-15T17:13:17.143Z,12.59
2018-03-15T17:15:45.477Z,12.51
2018-03-15T17:18:13.853Z,12.45
2018-03-15T17:20:42.205Z,12.39
2018-03-15T17:23:11.330Z,12.35
2018-03-15T17:25:39.689Z,12.30
2018-03-15T17:28:08.797Z,12.24
2018-03-15T17:30:37.403Z,12.18
2018-03-15T17:33:05.710Z,12.09
2018-03-15T17:35:34.036Z,12.02
2018-03-15T17:38:03.157Z,11.94
2018-03-15T17:40:31.773Z,11.87
2018-03-15T17:43:00.125Z,11.79
2018-03-15T17:45:28.463Z,11.73
2018-03-15T17:47:57.561Z,11.63
2018-03-15T17:50:25.889Z,11.52
2018-03-15T17:52:54.210Z,11.42
2018-03-15T17:55:22.755Z,11.33
2018-03-15T17:57:51.175Z,11.27
2018-03-15T18:00:19.515Z,11.22
2018-03-15T18:02:47.848Z,11.16
2018-03-15T18:05:16.247Z,11.10
2018-03-15T18:07:44.588Z,11.03
2018-03-15T18:10:12.943Z,10.98
2018-03-15T18:12:41.243Z,10.93
2018-03-15T18:15:09.855Z,10.89
2018-03-15T18:17:38.251Z,10.85
2018-03-15T18:20:07.691Z,10.98
2018-03-15T18:22:36.096Z,11.08
2018-03-15T18:25:04.444Z,10.98
2018-03-15T18:27:32.790Z,10.96
2018-03-15T18:30:01.228Z,10.93
2018-03-15T18:32:30.540Z,10.90
2018-03-15T18:34:58.961Z,10.90
2018-03-15T18:37:28.923Z,10.88
2018-03-15T18:39:58.049Z,10.85
2018-03-15T18:42:26.376Z,10.84
2018-03-15T18:44:54.748Z,10.85
2018-03-15T18:47:23.085Z,10.82
2018-03-15T18:49:51.456Z,10.82
2018-03-15T18:52:19.791Z,10.79
2018-03-15T18:54:48.135Z,10.79
2018-03-15T18:57:16.621Z,10.79
2018-03-15T18:59:45.095Z,10.78
2018-03-15T19:02:13.497Z,10.76
2018-03-15T19:04:41.844Z,10.75
2018-03-15T19:07:10.948Z,10.73
2018-03-15T19:09:39.290Z,10.72
2018-03-15T19:12:07.676Z,10.72
2018-03-15T19:14:36.820Z,10.71
2018-03-15T19:17:05.307Z,10.72
2018-03-15T19:19:33.747Z,10.72
2018-03-15T19:22:04.661Z,10.72
2018-03-15T19:24:33.197Z,10.71
2018-03-15T19:27:02.889Z,10.69
2018-03-15T19:29:34.291Z,10.70
2018-03-15T19:32:03.621Z,10.72
2018-03-15T19:34:32.118Z,10.72
2018-03-15T19:37:00.527Z,10.72
2018-03-15T19:39:29.727Z,10.74
2018-03-15T19:41:58.873Z,10.76
2018-03-15T19:44:27.211Z,10.77
2018-03-15T19:46:56.347Z,10.79
2018-03-15T19:49:24.762Z,10.82
2018-03-15T19:51:53.251Z,10.83
2018-03-15T19:54:21.664Z,10.84
2018-03-15T19:56:50.887Z,10.85
2018-03-15T19:59:19.535Z,10.88
2018-03-15T20:01:47.889Z,10.99
2018-03-15T20:04:16.231Z,10.96
2018-03-15T20:06:44.585Z,10.95
2018-03-15T20:09:13.712Z,10.93
2018-03-15T20:11:42.110Z,10.89
2018-03-15T20:14:11.217Z,10.85
2018-03-15T20:16:40.321Z,10.84
2018-03-15T20:19:14.083Z,10.79
2018-03-15T20:21:43.492Z,10.72
2018-03-15T20:24:18.249Z,10.66
2018-03-15T20:26:47.283Z,10.57
2018-03-15T20:29:15.829Z,10.48
2018-03-15T20:31:44.179Z,10.41
2018-03-15T20:34:13.417Z,10.36
2018-03-15T20:36:41.851Z,10.29
2018-03-15T20:39:15.833Z,10.24
2018-03-15T20:41:44.250Z,10.18
2018-03-15T20:44:13.651Z,10.14
2018-03-15T20:49:48.597Z,10.08
2018-03-15T20:52:17.681Z,10.02
2018-03-15T20:54:45.988Z,10.00
2018-03-15T20:57:15.091Z,9.93
2018-03-15T20:59:43.487Z,9.86
2018-03-15T21:02:11.908Z,9.80
2018-03-15T21:04:40.245Z,9.76
2018-03-15T21:07:08.603Z,9.69
2018-03-15T21:09:37.700Z,9.63
2018-03-15T21:12:06.762Z,9.57
2018-03-15T21:14:35.129Z,9.52
2018-03-15T21:17:03.498Z,9.45
2018-03-15T21:19:31.922Z,9.44
2018-03-15T21:22:00.263Z,9.38
2018-03-15T21:24:28.596Z,9.35
2018-03-15T21:26:57.218Z,9.33
2018-03-15T21:29:25.513Z,9.32
2018-03-15T21:31:53.840Z,9.27
2018-03-15T21:34:22.182Z,9.25
2018-03-15T21:36:50.594Z,9.22
2018-03-15T21:39:18.932Z,9.21
2018-03-15T21:41:47.451Z,9.16
2018-03-15T21:44:15.819Z,9.13
2018-03-15T21:46:44.160Z,9.11
2018-03-15T21:49:13.257Z,9.07
2018-03-15T21:51:42.382Z,9.07
2018-03-15T21:54:10.682Z,9.03
2018-03-15T21:56:39.065Z,8.99
2018-03-15T21:59:07.404Z,8.97
2018-03-15T22:01:35.720Z,8.94
2018-03-15T22:04:04.106Z,8.94
2018-03-15T22:06:32.420Z,8.92
2018-03-15T22:09:01.515Z,8.89
2018-03-15T22:11:29.804Z,8.89
2018-03-15T22:13:59.018Z,8.89
2018-03-15T22:16:28.092Z,8.87
2018-03-15T22:18:57.179Z,8.85
2018-03-15T22:21:25.493Z,8.84
2018-03-15T22:23:54.668Z,8.83
2018-03-15T22:26:22.979Z,8.80
2018-03-15T22:28:52.041Z,8.79
2018-03-15T22:31:20.365Z,8.77
2018-03-15T22:33:49.517Z,8.76
2018-03-15T22:36:17.917Z,8.74
2018-03-15T22:38:46.228Z,8.73
2018-03-15T22:41:14.535Z,8.74
2018-03-15T22:43:42.828Z,8.73
2018-03-15T22:46:12.529Z,8.71
2018-03-15T22:48:40.842Z,8.69
2018-03-15T22:51:09.160Z,8.67
2018-03-15T22:53:38.245Z,8.67
2018-03-15T22:56:07.300Z,8.66
2018-03-15T22:58:35.598Z,8.66
2018-03-15T23:01:04.521Z,8.65
2018-03-15T23:03:33.717Z,8.65
2018-03-15T23:06:02.049Z,8.61
2018-03-15T23:08:30.363Z,8.62
2018-03-15T23:10:58.681Z,8.60
2018-03-15T23:13:26.975Z,8.60
2018-03-15T23:15:55.292Z,8.61
2018-03-15T23:18:24.591Z,8.58
2018-03-15T23:20:52.914Z,8.60
2018-03-15T23:23:22.038Z,8.61
2018-03-15T23:25:50.417Z,8.59
2018-03-15T23:28:18.760Z,8.57
2018-03-15T23:30:47.825Z,8.58
2018-03-15T23:33:16.209Z,8.57
2018-03-15T23:35:44.619Z,8.57
2018-03-15T23:38:13.763Z,8.57
2018-03-15T23:40:42.071Z,8.55
2018-03-15T23:43:10.776Z,8.56
2018-03-15T23:45:41.032Z,8.54
2018-03-15T23:48:10.560Z,8.53
2018-03-15T23:50:38.991Z,8.52
2018-03-15T23:53:07.302Z,8.51
2018-03-15T23:55:36.391Z,8.51
2018-03-15T23:58:05.484Z,8.50
